Dorchester, MA (02124)

4:35 AM EDT on June 30, 2015 (GMT -0400)
Milton Hill | | Change Station
CLOSE
Current Station
Personal Weather Station
Location: Milton, MA
Elevation: 113 ft
Nearby Weather Stations

Elev 113 ft 42.26 °N, 71.06 °W | Updated 4 minutes ago

Partly Cloudy
Partly Cloudy
60.5 °F
Feels Like 60.5 °F
N
0.0
Wind Variable Wind from SW
Gusts 0.0 mph

Today
High -- | Low -- °F
--% Chance of Precip.
Yesterday
High -- | Low -- °F
Precip. -- in
5:10 AM 8:24 PM
Waxing Gibbous, 96% visible
Pressure 29.97 in
Visibility 10.0 miles
Clouds Clear
Dew Point 59 °F
Humidity 94%
Rainfall in
Snow Depth Not available.
UV 0 out of 12
Pollen 4.80 out of 12
Air Quality Not available.
Flu Activity Local Activity
METAR KBOS 300754Z 19005KT 10SM CLR 16/15 A2997 RMK AO2 SLP147 T01610150

More Conditions Fewer Conditions

Pressure 29.97 in
Visibility 10.0 miles
Clouds Clear
Dew Point 59 °F
Humidity 94%
Rainfall in
Snow Depth Not available.
UV 0 out of 12
Pollen 4.80 out of 12
Air Quality Not available.
Flu Activity Local Activity
METAR KBOS 300754Z 19005KT 10SM CLR 16/15 A2997 RMK AO2 SLP147 T01610150

More Conditions Fewer Conditions

10-Day Weather Forecast

×

Almanac

Astronomy

Jun. 30, 2015 Rise Set
Actual Time
Civil Twilight
Nautical Twilight
Astronomical Twilight
Moon
Length of Visible Light
Length of Day
Tomorrow will be .
, % of the Moon is Illuminated

Today's Extremes

State Highs State Lows

Community

WunderPhotos

Upload Photos

1,833,976 photos uploaded!

WunderBlogs® & News

Nearby

Air Quality

  Air Quality AQ Index Pollutant
Not available.

Snow Depth

Station Depth Elevation

Earthquake Activity

City Distance Mag. Time & Date
Minimum magnitude displayed is 2.5.

Coastal Water Temperatures

Place Temperature

Stations

Nearby Weather Stations

Station Location Temp. Windchill Dew Point Humidity Wind Precip. Elev Updated Type